Nearby METAR Reports



KADS - Dallas/Addison, Texas, USA
Distance from station: SSW 10mi, 16km
Updated: Mon, 29-Nov-2021 5:47pm CST
Clear
Clear
 Wind from SE
Wind: SE 8 mph , 13 km/h
Temperature: 66°F , 19°C
Dew Point: 39°F , 4°C
Humidity: 37%
Barometer: 30.07 inHg , 1018.3 hPa
Clouds: Clear
Visibility: 13 miles , 21 km
2021/11/29 23:47 KADS 292347Z 14007KT 13SM SKC 19/04 A3007
KTKI - Mckinney, Texas, USA
Distance from station: ENE 11mi, 18km
Updated: Mon, 29-Nov-2021 4:53pm CST
Clear
Clear
 Wind from SE
Wind: SE 7 mph , 11 km/h
Temperature: 66°F , 19°C
Dew Point: 41°F , 5°C
Humidity: 40%
Barometer: 30.06 inHg , 1017.9 hPa
Clouds: Clear
Visibility: 10 miles , 16 km
2021/11/29 22:53 KTKI 292253Z 14006KT 10SM CLR 19/05 A3006 RMK AO2 SLP188 T01890050
 
KDAL - Dallas/Love Fld, Texas, USA
Distance from station: SSW 18mi, 30km
Updated: Mon, 29-Nov-2021 4:53pm CST
Clear
Clear
 Wind from SSE
Wind: SSE 8 mph , 13 km/h
Temperature: 70°F , 21°C
Dew Point: 39°F , 4°C
Humidity: 33%
Barometer: 30.06 inHg , 1017.9 hPa
Clouds: Clear
Visibility: 10 miles , 16 km
2021/11/29 22:53 KDAL 292253Z 16007KT 10SM CLR 21/04 A3006 RMK AO2 SLP176 T02110039
KDFW - Dallas/Ft Worth, Texas, USA
Distance from station: SW 21mi, 34km
Updated: Mon, 29-Nov-2021 4:53pm CST
Clear
Clear
 Wind from S
Wind: S 8 mph , 13 km/h
Temperature: 70°F , 21°C
Dew Point: 37°F , 3°C
Humidity: 31%
Barometer: 30.04 inHg , 1017.3 hPa
Clouds: Clear
Visibility: 10 miles , 16 km
2021/11/29 22:53 KDFW 292253Z 17007KT 10SM CLR 21/03 A3004 RMK AO2 SLP170 T02060028
 
KF46 - Rockwall, Texas, USA
Distance from station: ESE 22mi, 35km
Updated: Mon, 29-Nov-2021 5:35pm CST
Clear
Clear
 Wind from S
Wind: S 5 mph , 7 km/h
Temperature: 63°F , 17°C
Dew Point: 41°F , 5°C
Humidity: 45%
Barometer: 30.08 inHg , 1018.6 hPa
Clouds: Clear
Visibility: 10 miles , 16 km
2021/11/29 23:35 KF46 292335Z AUTO 17004KT 10SM CLR 17/05 A3008 RMK AO2 T01720047
KDTO - Denton, Texas, USA
Distance from station: WNW 27mi, 43km
Updated: Mon, 29-Nov-2021 4:53pm CST
Clear
Clear
 Wind from SSE
Wind: SSE 8 mph , 13 km/h
Temperature: 70°F , 21°C
Dew Point: 39°F , 4°C
Humidity: 33%
Barometer: 30.05 inHg , 1017.6 hPa
Clouds: Clear
Visibility: 10 miles , 16 km
2021/11/29 22:53 KDTO 292253Z 16007KT 10SM CLR 21/04 A3005 RMK AO2 SLP173 T02060044
 
KHQZ - Mesquite, Texas, USA
Distance from station: SSE 28mi, 44km
Updated: Mon, 29-Nov-2021 5:50pm CST
Clear
Clear
 Wind from SSE
Wind: SSE 6 mph , 9 km/h
Temperature: 59°F , 15°C
Dew Point: 39°F , 4°C
Humidity: 48%
Barometer: 30.08 inHg , 1018.6 hPa
Clouds: Clear
Visibility: 10 miles , 16 km
2021/11/29 23:50 KHQZ 292350Z 15005KT 10SM CLR 15/04 A3008
KRBD - Dallas/Redbird, Texas, USA
Distance from station: SSW 30mi, 48km
Updated: Mon, 29-Nov-2021 4:53pm CST
Clear
Clear
 Wind from S
Wind: S 12 mph , 19 km/h
Temperature: 68°F , 20°C
Dew Point: 37°F , 3°C
Humidity: 33%
Barometer: 30.06 inHg , 1017.9 hPa
Clouds: Clear
Visibility: 10 miles , 16 km
2021/11/29 22:53 KRBD 292253Z 18010KT 10SM CLR 20/03 A3006 RMK AO2 SLP178 T02000033
 
KGPM - Grand Prairie, Texas, USA
Distance from station: SSW 33mi, 53km
Updated: Mon, 29-Nov-2021 5:50pm CST
Clear
Clear
 Wind from SSE
Wind: SSE 9 mph , 15 km/h
Temperature: 66°F , 19°C
Dew Point: 37°F , 3°C
Humidity: 35%
Barometer: 30.08 inHg , 1018.6 hPa
Clouds: Clear
Visibility: 10 miles , 16 km
2021/11/29 23:50 KGPM 292350Z 16008KT 10SM SKC 19/03 A3008
KAFW - Ft Worth/Allianc, Texas, USA
Distance from station: WSW 34mi, 55km
Updated: Mon, 29-Nov-2021 4:53pm CST
Clear
Clear
 Wind from S
Wind: S 9 mph , 15 km/h
Temperature: 70°F , 21°C
Dew Point: 39°F , 4°C
Humidity: 33%
Barometer: 30.04 inHg , 1017.3 hPa
Clouds: Clear
Visibility: 10 miles , 16 km
2021/11/29 22:53 KAFW 292253Z 17008KT 10SM CLR 21/04 A3004 RMK AO2 SLP169 T02060039
 
KLNC - Lancaster, Texas, USA
Distance from station: S 36mi, 58km
Updated: Mon, 29-Nov-2021 5:35pm CST
Clear
Clear
 Wind from SSE
Wind: SSE 5 mph , 7 km/h
Temperature: 61°F , 16°C
Dew Point: 43°F , 6°C
Humidity: 52%
Barometer: 30.09 inHg , 1019 hPa
Clouds: Clear
Visibility: 10 miles , 16 km
2021/11/29 23:35 KLNC 292335Z AUTO 16004KT 10SM CLR 16/06 A3009 RMK AO2 T01640061
KGKY - Arlington, Texas, USA
Distance from station: SSW 36mi, 59km
Updated: Mon, 29-Nov-2021 4:53pm CST
Clear
Clear
 Wind from SSE
Wind: SSE 8 mph , 13 km/h
Temperature: 73°F , 23°C
Dew Point: 37°F , 3°C
Humidity: 27%
Barometer: 30.06 inHg , 1017.9 hPa
Clouds: Clear
Visibility: 10 miles , 16 km
2021/11/29 22:53 KGKY 292253Z 15007KT 10SM CLR 23/03 A3006 RMK AO2 SLP177 T02280033
 
KTRL - Terrell, Texas, USA
Distance from station: SE 39mi, 63km
Updated: Mon, 29-Nov-2021 4:53pm CST
Clear
Clear
 Wind from S
Wind: S 6 mph , 9 km/h
Temperature: 64°F , 18°C
Dew Point: 43°F , 6°C
Humidity: 46%
Barometer: 30.09 inHg , 1019 hPa
Clouds: Clear
Visibility: 10 miles , 16 km
2021/11/29 22:53 KTRL 292253Z AUTO 17005KT 10SM CLR 18/06 A3009 RMK AO2 SLP186 T01830061
KGVT - Greenville/Major, Texas, USA
Distance from station: E 40mi, 64km
Updated: Mon, 29-Nov-2021 5:35pm CST
Clear
Clear
 Wind from SE
Wind: SE 7 mph , 11 km/h
Temperature: 55°F , 13°C
Dew Point: 41°F , 5°C
Humidity: 59%
Barometer: 30.09 inHg , 1019 hPa
Clouds: Clear
Visibility: 10 miles , 16 km
2021/11/29 23:35 KGVT 292335Z AUTO 13006KT 10SM CLR 13/05 A3009 RMK AO2 TSNO T01250049
 
KFTW - Fort Worth, Texas, USA
Distance from station: WSW 40mi, 65km
Updated: Mon, 29-Nov-2021 4:53pm CST
Clear
Clear
 Wind from S
Wind: S 7 mph , 11 km/h
Temperature: 70°F , 21°C
Dew Point: 37°F , 3°C
Humidity: 31%
Barometer: 30.05 inHg , 1017.6 hPa
Clouds: Clear
Visibility: 10 miles , 16 km
2021/11/29 22:53 KFTW 292253Z 18006KT 10SM CLR 21/03 A3005 RMK AO2 SLP172 T02060033
KGYI - Sherman/Denison, Texas, USA
Distance from station: N 43mi, 69km
Updated: Mon, 29-Nov-2021 4:50pm CST
Clear
Clear
 Wind from S
Wind: S 8 mph , 13 km/h
Temperature: 66°F , 19°C
Dew Point: 39°F , 4°C
Humidity: 37%
Barometer: 30.07 inHg , 1018.3 hPa
Clouds: Clear
Visibility: 10 miles , 16 km
2021/11/29 22:50 KGYI 292250Z 17007KT 10SM SKC 19/04 A3007
 
KNFW - Fort Worth Nas, Texas, USA
Distance from station: WSW 45mi, 73km
Updated: Mon, 29-Nov-2021 4:52pm CST
Clear
Clear
 Wind from S
Wind: S 7 mph , 11 km/h
Temperature: 70°F , 21°C
Dew Point: 39°F , 4°C
Humidity: 33%
Barometer: 30.05 inHg , 1017.6 hPa
Clouds: Clear
Visibility: 10 miles , 16 km
2021/11/29 22:52 KNFW 292252Z 19006KT 10SM CLR 21/04 A3005 RMK AO2 SLP160 T02110039 CHINO S VISNO S $
KGLE - Gainesville, Texas, USA
Distance from station: NW 46mi, 74km
Updated: Mon, 29-Nov-2021 5:35pm CST
Clear
Clear
 Wind from S
Wind: S 5 mph , 7 km/h
Temperature: 63°F , 17°C
Dew Point: 37°F , 3°C
Humidity: 39%
Barometer: 30.07 inHg , 1018.3 hPa
Clouds: Clear
Visibility: 10 miles , 16 km
2021/11/29 23:35 KGLE 292335Z AUTO 18004KT 10SM CLR 17/03 A3007 RMK AO2 T01660028
 
KJWY - Midlothian/Wax, Texas, USA
Distance from station: SSW 46mi, 74km
Updated: Wed, 24-Nov-2021 9:10am CST
NOT Current
Overcast
Overcast
 Wind from SSE
Wind: SSE 9 mph , 15 km/h
Temperature: 57°F , 14°C
Dew Point: 54°F , 12°C
Humidity: 88%
Barometer: 30.05 inHg , 1017.6 hPa
Clouds: Overcast
Visibility: 10 miles , 16 km
Cloud details: Overcast 4200 ft
2021/11/24 15:10 KJWY 241510Z AUTO 16008KT 10SM OVC042 14/12 A3005 RMK AO2 T01420122
KFWS - Fort Worth/88d, Texas, USA
Distance from station: SW 49mi, 79km
Updated: Mon, 29-Nov-2021 5:45pm CST
Clear
Clear
 Wind from SSE
Wind: SSE 6 mph , 9 km/h
Temperature: 63°F , 17°C
Dew Point: 39°F , 4°C
Humidity: 42%
Barometer: 30.08 inHg , 1018.6 hPa
Clouds: Clear
Visibility: 10 miles , 16 km
2021/11/29 23:45 KFWS 292345Z 15005KT 10SM CLR 17/04 A3008